sensor_id;sensor_type;location;lat;lon;timestamp;temperature;humidity
2955;DHT22;1487;51.470;6.938;2022-07-29T00:00:03;19.30;99.90
2955;DHT22;1487;51.470;6.938;2022-07-29T00:02:30;19.30;99.90
2955;DHT22;1487;51.470;6.938;2022-07-29T00:04:57;19.20;99.90
2955;DHT22;1487;51.470;6.938;2022-07-29T00:07:24;19.20;99.90
2955;DHT22;1487;51.470;6.938;2022-07-29T00:09:51;19.20;99.90
2955;DHT22;1487;51.470;6.938;2022-07-29T00:12:19;19.20;99.90
2955;DHT22;1487;51.470;6.938;2022-07-29T00:14:47;19.20;99.90
2955;DHT22;1487;51.470;6.938;2022-07-29T00:17:15;19.20;99.90
2955;DHT22;1487;51.470;6.938;2022-07-29T00:19:42;19.20;99.90
2955;DHT22;1487;51.470;6.938;2022-07-29T00:22:09;19.20;99.90
2955;DHT22;1487;51.470;6.938;2022-07-29T00:24:36;19.10;99.90
2955;DHT22;1487;51.470;6.938;2022-07-29T00:27:03;19.10;99.90
2955;DHT22;1487;51.470;6.938;2022-07-29T00:29:30;19.10;99.90
2955;DHT22;1487;51.470;6.938;2022-07-29T00:31:57;19.10;99.90
2955;DHT22;1487;51.470;6.938;2022-07-29T00:34:25;19.10;99.90
2955;DHT22;1487;51.470;6.938;2022-07-29T00:37:09;19.00;99.90
2955;DHT22;1487;51.470;6.938;2022-07-29T00:39:36;19.10;99.90
2955;DHT22;1487;51.470;6.938;2022-07-29T00:42:03;19.00;99.90
2955;DHT22;1487;51.470;6.938;2022-07-29T00:44:30;19.00;99.90
2955;DHT22;1487;51.470;6.938;2022-07-29T00:46:57;18.90;99.90
2955;DHT22;1487;51.470;6.938;2022-07-29T00:49:25;18.90;99.90
2955;DHT22;1487;51.470;6.938;2022-07-29T00:51:52;18.90;99.90
2955;DHT22;1487;51.470;6.938;2022-07-29T00:54:19;18.80;99.90
2955;DHT22;1487;51.470;6.938;2022-07-29T00:56:46;18.80;99.90
2955;DHT22;1487;51.470;6.938;2022-07-29T00:59:13;18.80;99.90
2955;DHT22;1487;51.470;6.938;2022-07-29T01:01:40;18.80;99.90
2955;DHT22;1487;51.470;6.938;2022-07-29T01:04:07;18.80;99.90
2955;DHT22;1487;51.470;6.938;2022-07-29T01:06:35;18.80;99.90
2955;DHT22;1487;51.470;6.938;2022-07-29T01:09:02;18.70;99.90
2955;DHT22;1487;51.470;6.938;2022-07-29T01:11:29;18.70;99.90
2955;DHT22;1487;51.470;6.938;2022-07-29T01:13:56;18.70;99.90
2955;DHT22;1487;51.470;6.938;2022-07-29T01:16:28;18.70;99.90
2955;DHT22;1487;51.470;6.938;2022-07-29T01:19:03;18.60;99.90
2955;DHT22;1487;51.470;6.938;2022-07-29T01:21:50;18.60;99.90
2955;DHT22;1487;51.470;6.938;2022-07-29T01:24:33;18.60;99.90
2955;DHT22;1487;51.470;6.938;2022-07-29T01:27:17;18.60;99.90
2955;DHT22;1487;51.470;6.938;2022-07-29T01:29:55;18.50;99.90
2955;DHT22;1487;51.470;6.938;2022-07-29T01:32:26;18.50;99.90
2955;DHT22;1487;51.470;6.938;2022-07-29T01:34:57;18.40;99.90
2955;DHT22;1487;51.470;6.938;2022-07-29T01:37:28;18.50;99.90
2955;DHT22;1487;51.470;6.938;2022-07-29T01:39:57;18.50;99.90
2955;DHT22;1487;51.470;6.938;2022-07-29T01:42:30;18.50;99.90
2955;DHT22;1487;51.470;6.938;2022-07-29T01:45:03;18.40;99.90
2955;DHT22;1487;51.470;6.938;2022-07-29T01:47:37;18.50;99.90
2955;DHT22;1487;51.470;6.938;2022-07-29T01:50:08;18.50;99.90
2955;DHT22;1487;51.470;6.938;2022-07-29T01:52:41;18.40;99.90
2955;DHT22;1487;51.470;6.938;2022-07-29T01:55:13;18.40;99.90
2955;DHT22;1487;51.470;6.938;2022-07-29T01:57:43;18.40;99.90
2955;DHT22;1487;51.470;6.938;2022-07-29T02:00:13;18.40;99.90
2955;DHT22;1487;51.470;6.938;2022-07-29T02:02:43;18.40;99.90
2955;DHT22;1487;51.470;6.938;2022-07-29T02:05:14;18.40;99.90
2955;DHT22;1487;51.470;6.938;2022-07-29T02:07:43;18.40;99.90
2955;DHT22;1487;51.470;6.938;2022-07-29T02:10:11;18.40;99.90
2955;DHT22;1487;51.470;6.938;2022-07-29T02:12:40;18.40;99.90
2955;DHT22;1487;51.470;6.938;2022-07-29T02:15:09;18.40;99.90
2955;DHT22;1487;51.470;6.938;2022-07-29T02:17:42;18.40;99.90
2955;DHT22;1487;51.470;6.938;2022-07-29T02:20:10;18.40;99.90
2955;DHT22;1487;51.470;6.938;2022-07-29T02:22:39;18.40;99.90
2955;DHT22;1487;51.470;6.938;2022-07-29T02:25:09;18.40;99.90
2955;DHT22;1487;51.470;6.938;2022-07-29T02:27:37;18.30;99.90
2955;DHT22;1487;51.470;6.938;2022-07-29T02:30:07;18.30;99.90
2955;DHT22;1487;51.470;6.938;2022-07-29T02:32:37;18.20;99.90
2955;DHT22;1487;51.470;6.938;2022-07-29T02:35:08;18.10;99.90
2955;DHT22;1487;51.470;6.938;2022-07-29T02:37:36;18.10;99.90
2955;DHT22;1487;51.470;6.938;2022-07-29T02:40:07;18.10;99.90
2955;DHT22;1487;51.470;6.938;2022-07-29T02:42:36;18.10;99.90
2955;DHT22;1487;51.470;6.938;2022-07-29T02:45:04;18.10;99.90
2955;DHT22;1487;51.470;6.938;2022-07-29T02:47:36;18.10;99.90
2955;DHT22;1487;51.470;6.938;2022-07-29T02:50:08;18.10;99.90
2955;DHT22;1487;51.470;6.938;2022-07-29T02:52:41;18.20;99.90
2955;DHT22;1487;51.470;6.938;2022-07-29T02:55:15;18.20;99.90
2955;DHT22;1487;51.470;6.938;2022-07-29T02:57:44;18.20;99.90
2955;DHT22;1487;51.470;6.938;2022-07-29T03:00:14;18.20;99.90
2955;DHT22;1487;51.470;6.938;2022-07-29T03:02:45;18.30;99.90
2955;DHT22;1487;51.470;6.938;2022-07-29T03:05:17;18.40;99.90
2955;DHT22;1487;51.470;6.938;2022-07-29T03:07:47;18.40;99.90
2955;DHT22;1487;51.470;6.938;2022-07-29T03:10:16;18.40;99.90
2955;DHT22;1487;51.470;6.938;2022-07-29T03:12:43;18.30;99.90
2955;DHT22;1487;51.470;6.938;2022-07-29T03:15:11;18.30;99.90
2955;DHT22;1487;51.470;6.938;2022-07-29T03:17:38;18.30;99.90
2955;DHT22;1487;51.470;6.938;2022-07-29T03:20:07;18.30;99.90
2955;DHT22;1487;51.470;6.938;2022-07-29T03:22:39;18.30;99.90
2955;DHT22;1487;51.470;6.938;2022-07-29T03:25:09;18.20;99.90
2955;DHT22;1487;51.470;6.938;2022-07-29T03:27:36;18.00;99.90
2955;DHT22;1487;51.470;6.938;2022-07-29T03:30:03;17.90;99.90
2955;DHT22;1487;51.470;6.938;2022-07-29T03:32:30;17.80;99.90
2955;DHT22;1487;51.470;6.938;2022-07-29T03:34:57;17.50;99.90
2955;DHT22;1487;51.470;6.938;2022-07-29T03:37:24;17.30;99.90
2955;DHT22;1487;51.470;6.938;2022-07-29T03:39:55;17.20;99.90
2955;DHT22;1487;51.470;6.938;2022-07-29T03:42:25;17.00;99.90
2955;DHT22;1487;51.470;6.938;2022-07-29T03:44:54;16.90;99.90
2955;DHT22;1487;51.470;6.938;2022-07-29T03:47:24;16.80;99.90
2955;DHT22;1487;51.470;6.938;2022-07-29T03:49:55;16.80;99.90
2955;DHT22;1487;51.470;6.938;2022-07-29T03:52:23;16.70;99.90
2955;DHT22;1487;51.470;6.938;2022-07-29T03:54:51;16.60;99.90
2955;DHT22;1487;51.470;6.938;2022-07-29T03:57:19;16.60;99.90
2955;DHT22;1487;51.470;6.938;2022-07-29T03:59:48;16.60;99.90
2955;DHT22;1487;51.470;6.938;2022-07-29T04:02:17;16.70;99.90
2955;DHT22;1487;51.470;6.938;2022-07-29T04:04:44;16.70;99.90
2955;DHT22;1487;51.470;6.938;2022-07-29T04:07:12;16.80;99.90
2955;DHT22;1487;51.470;6.938;2022-07-29T04:09:39;16.80;99.90
2955;DHT22;1487;51.470;6.938;2022-07-29T04:12:08;16.80;99.90
2955;DHT22;1487;51.470;6.938;2022-07-29T04:14:36;16.90;99.90
2955;DHT22;1487;51.470;6.938;2022-07-29T04:17:03;16.90;99.90
2955;DHT22;1487;51.470;6.938;2022-07-29T04:19:31;16.80;99.90
2955;DHT22;1487;51.470;6.938;2022-07-29T04:21:59;16.80;99.90
2955;DHT22;1487;51.470;6.938;2022-07-29T04:24:26;16.80;99.90
2955;DHT22;1487;51.470;6.938;2022-07-29T04:26:53;16.90;99.90
2955;DHT22;1487;51.470;6.938;2022-07-29T04:29:22;16.90;99.90
2955;DHT22;1487;51.470;6.938;2022-07-29T04:31:48;17.00;99.90
2955;DHT22;1487;51.470;6.938;2022-07-29T04:34:15;17.00;99.90
2955;DHT22;1487;51.470;6.938;2022-07-29T04:36:42;17.00;99.90
2955;DHT22;1487;51.470;6.938;2022-07-29T04:39:09;17.00;99.90
2955;DHT22;1487;51.470;6.938;2022-07-29T04:41:36;16.90;99.90
2955;DHT22;1487;51.470;6.938;2022-07-29T04:44:04;17.00;99.90
2955;DHT22;1487;51.470;6.938;2022-07-29T04:46:33;17.10;99.90
2955;DHT22;1487;51.470;6.938;2022-07-29T04:48:59;17.10;99.90
2955;DHT22;1487;51.470;6.938;2022-07-29T04:51:26;17.10;99.90
2955;DHT22;1487;51.470;6.938;2022-07-29T04:53:53;17.10;99.90
2955;DHT22;1487;51.470;6.938;2022-07-29T04:56:20;17.10;99.90
2955;DHT22;1487;51.470;6.938;2022-07-29T04:58:47;17.20;99.90
2955;DHT22;1487;51.470;6.938;2022-07-29T05:01:14;17.20;99.90
2955;DHT22;1487;51.470;6.938;2022-07-29T05:03:42;17.20;99.90
2955;DHT22;1487;51.470;6.938;2022-07-29T05:06:09;17.10;99.90
2955;DHT22;1487;51.470;6.938;2022-07-29T05:08:36;17.10;99.90
2955;DHT22;1487;51.470;6.938;2022-07-29T05:11:03;17.10;99.90
2955;DHT22;1487;51.470;6.938;2022-07-29T05:13:30;17.20;99.90
2955;DHT22;1487;51.470;6.938;2022-07-29T05:15:57;17.20;99.90
2955;DHT22;1487;51.470;6.938;2022-07-29T05:18:24;17.20;99.90
2955;DHT22;1487;51.470;6.938;2022-07-29T05:20:52;17.20;99.90
2955;DHT22;1487;51.470;6.938;2022-07-29T05:23:19;17.10;99.90
2955;DHT22;1487;51.470;6.938;2022-07-29T05:25:46;17.10;99.90
2955;DHT22;1487;51.470;6.938;2022-07-29T05:28:13;17.10;99.90
2955;DHT22;1487;51.470;6.938;2022-07-29T05:30:40;17.10;99.90
2955;DHT22;1487;51.470;6.938;2022-07-29T05:33:07;17.20;99.90
2955;DHT22;1487;51.470;6.938;2022-07-29T05:35:34;17.30;99.90
2955;DHT22;1487;51.470;6.938;2022-07-29T05:38:04;17.30;99.90
2955;DHT22;1487;51.470;6.938;2022-07-29T05:40:31;17.20;99.90
2955;DHT22;1487;51.470;6.938;2022-07-29T05:42:57;17.20;99.90
2955;DHT22;1487;51.470;6.938;2022-07-29T05:45:24;17.20;99.90
2955;DHT22;1487;51.470;6.938;2022-07-29T05:47:51;17.30;99.90
2955;DHT22;1487;51.470;6.938;2022-07-29T05:50:18;17.30;99.90
2955;DHT22;1487;51.470;6.938;2022-07-29T05:52:45;17.10;99.90
2955;DHT22;1487;51.470;6.938;2022-07-29T05:55:13;17.00;99.90
2955;DHT22;1487;51.470;6.938;2022-07-29T05:57:40;16.90;99.90
2955;DHT22;1487;51.470;6.938;2022-07-29T06:00:09;16.70;99.90
2955;DHT22;1487;51.470;6.938;2022-07-29T06:02:37;16.50;99.90
2955;DHT22;1487;51.470;6.938;2022-07-29T06:05:04;16.30;99.90
2955;DHT22;1487;51.470;6.938;2022-07-29T06:07:31;16.10;99.90
2955;DHT22;1487;51.470;6.938;2022-07-29T06:09:58;16.10;99.90
2955;DHT22;1487;51.470;6.938;2022-07-29T06:12:26;16.00;99.90
2955;DHT22;1487;51.470;6.938;2022-07-29T06:14:53;15.90;99.90
2955;DHT22;1487;51.470;6.938;2022-07-29T06:17:19;15.80;99.90
2955;DHT22;1487;51.470;6.938;2022-07-29T06:19:46;15.80;99.90
2955;DHT22;1487;51.470;6.938;2022-07-29T06:22:15;15.90;99.90
2955;DHT22;1487;51.470;6.938;2022-07-29T06:24:41;15.90;99.90
2955;DHT22;1487;51.470;6.938;2022-07-29T06:27:09;15.90;99.90
2955;DHT22;1487;51.470;6.938;2022-07-29T06:29:38;16.00;99.90
2955;DHT22;1487;51.470;6.938;2022-07-29T06:32:05;15.90;99.90
2955;DHT22;1487;51.470;6.938;2022-07-29T06:34:32;16.00;99.90
2955;DHT22;1487;51.470;6.938;2022-07-29T06:36:59;15.90;99.90
2955;DHT22;1487;51.470;6.938;2022-07-29T06:39:28;15.90;99.90
2955;DHT22;1487;51.470;6.938;2022-07-29T06:41:55;16.00;99.90
2955;DHT22;1487;51.470;6.938;2022-07-29T06:44:22;16.10;99.90
2955;DHT22;1487;51.470;6.938;2022-07-29T06:46:50;16.20;99.90
2955;DHT22;1487;51.470;6.938;2022-07-29T06:49:17;16.30;99.90
2955;DHT22;1487;51.470;6.938;2022-07-29T06:51:44;16.40;99.90
2955;DHT22;1487;51.470;6.938;2022-07-29T06:54:10;16.60;99.90
2955;DHT22;1487;51.470;6.938;2022-07-29T06:56:37;16.70;99.90
2955;DHT22;1487;51.470;6.938;2022-07-29T06:59:07;16.80;99.90
2955;DHT22;1487;51.470;6.938;2022-07-29T07:01:35;16.90;99.90
2955;DHT22;1487;51.470;6.938;2022-07-29T07:04:04;17.00;99.90
2955;DHT22;1487;51.470;6.938;2022-07-29T07:06:31;17.10;99.90
2955;DHT22;1487;51.470;6.938;2022-07-29T07:08:58;17.20;99.90
2955;DHT22;1487;51.470;6.938;2022-07-29T07:11:25;17.30;99.90
2955;DHT22;1487;51.470;6.938;2022-07-29T07:13:52;17.40;99.90
2955;DHT22;1487;51.470;6.938;2022-07-29T07:16:19;17.50;99.90
2955;DHT22;1487;51.470;6.938;2022-07-29T07:18:46;17.60;99.90
2955;DHT22;1487;51.470;6.938;2022-07-29T07:21:14;17.60;99.90
2955;DHT22;1487;51.470;6.938;2022-07-29T07:23:41;17.70;99.90
2955;DHT22;1487;51.470;6.938;2022-07-29T07:26:07;17.70;99.90
2955;DHT22;1487;51.470;6.938;2022-07-29T07:28:35;17.70;99.90
2955;DHT22;1487;51.470;6.938;2022-07-29T07:31:02;17.80;99.90
2955;DHT22;1487;51.470;6.938;2022-07-29T07:33:29;17.90;99.90
2955;DHT22;1487;51.470;6.938;2022-07-29T07:35:55;17.90;99.90
2955;DHT22;1487;51.470;6.938;2022-07-29T07:38:24;17.90;99.90
2955;DHT22;1487;51.470;6.938;2022-07-29T07:40:50;17.90;99.90
2955;DHT22;1487;51.470;6.938;2022-07-29T07:43:17;17.90;99.90
2955;DHT22;1487;51.470;6.938;2022-07-29T07:45:44;18.00;99.90
2955;DHT22;1487;51.470;6.938;2022-07-29T07:48:11;18.10;99.90
2955;DHT22;1487;51.470;6.938;2022-07-29T07:50:38;18.10;99.90
2955;DHT22;1487;51.470;6.938;2022-07-29T07:53:05;18.20;99.90
2955;DHT22;1487;51.470;6.938;2022-07-29T07:55:33;18.20;99.90
2955;DHT22;1487;51.470;6.938;2022-07-29T07:58:00;18.30;99.90
2955;DHT22;1487;51.470;6.938;2022-07-29T08:00:27;18.50;99.90
2955;DHT22;1487;51.470;6.938;2022-07-29T08:02:54;18.60;99.90
2955;DHT22;1487;51.470;6.938;2022-07-29T08:05:20;18.60;99.90
2955;DHT22;1487;51.470;6.938;2022-07-29T08:07:47;18.70;99.90
2955;DHT22;1487;51.470;6.938;2022-07-29T08:10:14;18.70;99.90
2955;DHT22;1487;51.470;6.938;2022-07-29T08:13:03;18.60;99.90
2955;DHT22;1487;51.470;6.938;2022-07-29T08:15:30;18.70;99.90
2955;DHT22;1487;51.470;6.938;2022-07-29T08:17:57;18.70;99.90
2955;DHT22;1487;51.470;6.938;2022-07-29T08:20:24;18.60;99.90
2955;DHT22;1487;51.470;6.938;2022-07-29T08:22:51;18.60;99.90
2955;DHT22;1487;51.470;6.938;2022-07-29T08:25:19;18.60;99.90
2955;DHT22;1487;51.470;6.938;2022-07-29T08:27:46;18.50;99.90
2955;DHT22;1487;51.470;6.938;2022-07-29T08:30:14;18.60;99.90
2955;DHT22;1487;51.470;6.938;2022-07-29T08:32:41;18.50;99.90
2955;DHT22;1487;51.470;6.938;2022-07-29T08:35:08;18.50;99.90
2955;DHT22;1487;51.470;6.938;2022-07-29T08:37:35;18.50;99.90
2955;DHT22;1487;51.470;6.938;2022-07-29T08:40:03;18.50;99.90
2955;DHT22;1487;51.470;6.938;2022-07-29T08:42:31;18.40;99.90
2955;DHT22;1487;51.470;6.938;2022-07-29T08:44:58;18.50;99.90
2955;DHT22;1487;51.470;6.938;2022-07-29T08:47:27;18.50;99.90
2955;DHT22;1487;51.470;6.938;2022-07-29T08:49:54;18.60;99.90
2955;DHT22;1487;51.470;6.938;2022-07-29T08:52:21;18.60;99.90
2955;DHT22;1487;51.470;6.938;2022-07-29T08:54:52;18.80;99.90
2955;DHT22;1487;51.470;6.938;2022-07-29T08:57:20;18.90;99.90
2955;DHT22;1487;51.470;6.938;2022-07-29T08:59:50;18.90;99.90
2955;DHT22;1487;51.470;6.938;2022-07-29T09:02:21;18.80;99.90
2955;DHT22;1487;51.470;6.938;2022-07-29T09:04:49;18.70;99.90
2955;DHT22;1487;51.470;6.938;2022-07-29T09:07:18;18.70;99.90
2955;DHT22;1487;51.470;6.938;2022-07-29T09:09:45;18.70;99.90
2955;DHT22;1487;51.470;6.938;2022-07-29T09:12:14;18.60;99.90
2955;DHT22;1487;51.470;6.938;2022-07-29T09:14:41;18.60;99.90
2955;DHT22;1487;51.470;6.938;2022-07-29T09:17:08;18.50;99.90
2955;DHT22;1487;51.470;6.938;2022-07-29T09:19:37;18.40;99.90
2955;DHT22;1487;51.470;6.938;2022-07-29T09:22:06;18.20;99.90
2955;DHT22;1487;51.470;6.938;2022-07-29T09:24:45;17.90;99.90
2955;DHT22;1487;51.470;6.938;2022-07-29T09:27:20;17.60;99.90
2955;DHT22;1487;51.470;6.938;2022-07-29T09:29:55;17.40;99.90
2955;DHT22;1487;51.470;6.938;2022-07-29T09:32:23;17.30;99.90
2955;DHT22;1487;51.470;6.938;2022-07-29T09:34:50;17.30;99.90
2955;DHT22;1487;51.470;6.938;2022-07-29T09:37:27;17.40;99.90
2955;DHT22;1487;51.470;6.938;2022-07-29T09:39:54;17.50;99.90
2955;DHT22;1487;51.470;6.938;2022-07-29T09:42:28;17.60;99.90
2955;DHT22;1487;51.470;6.938;2022-07-29T09:44:57;17.70;99.90
2955;DHT22;1487;51.470;6.938;2022-07-29T09:47:41;17.80;99.90
2955;DHT22;1487;51.470;6.938;2022-07-29T09:50:11;18.00;99.90
2955;DHT22;1487;51.470;6.938;2022-07-29T09:52:47;18.10;99.90
2955;DHT22;1487;51.470;6.938;2022-07-29T09:55:14;18.30;99.90
2955;DHT22;1487;51.470;6.938;2022-07-29T09:57:41;18.30;99.90
2955;DHT22;1487;51.470;6.938;2022-07-29T10:00:11;18.40;99.90
2955;DHT22;1487;51.470;6.938;2022-07-29T10:02:39;18.40;99.90
2955;DHT22;1487;51.470;6.938;2022-07-29T10:05:16;18.30;99.90
2955;DHT22;1487;51.470;6.938;2022-07-29T10:07:47;18.30;99.90
2955;DHT22;1487;51.470;6.938;2022-07-29T10:10:19;18.40;99.90
2955;DHT22;1487;51.470;6.938;2022-07-29T10:12:54;18.40;99.90
2955;DHT22;1487;51.470;6.938;2022-07-29T10:15:22;18.40;99.90
2955;DHT22;1487;51.470;6.938;2022-07-29T10:17:50;18.40;99.90
2955;DHT22;1487;51.470;6.938;2022-07-29T10:20:18;18.40;99.90
2955;DHT22;1487;51.470;6.938;2022-07-29T10:22:46;18.60;99.90
2955;DHT22;1487;51.470;6.938;2022-07-29T10:25:15;18.70;99.90
2955;DHT22;1487;51.470;6.938;2022-07-29T10:27:42;18.90;99.90
2955;DHT22;1487;51.470;6.938;2022-07-29T10:30:10;19.00;99.90
2955;DHT22;1487;51.470;6.938;2022-07-29T10:32:54;19.20;99.90
2955;DHT22;1487;51.470;6.938;2022-07-29T10:35:47;19.40;99.90
2955;DHT22;1487;51.470;6.938;2022-07-29T10:38:43;19.60;99.90
2955;DHT22;1487;51.470;6.938;2022-07-29T10:41:33;19.80;99.90
2955;DHT22;1487;51.470;6.938;2022-07-29T10:44:06;20.00;99.90
2955;DHT22;1487;51.470;6.938;2022-07-29T10:46:35;20.40;99.90
2955;DHT22;1487;51.470;6.938;2022-07-29T10:49:11;20.60;99.90
2955;DHT22;1487;51.470;6.938;2022-07-29T10:51:53;20.80;99.90
2955;DHT22;1487;51.470;6.938;2022-07-29T10:54:47;21.30;99.90
2955;DHT22;1487;51.470;6.938;2022-07-29T10:57:17;21.90;99.90
2955;DHT22;1487;51.470;6.938;2022-07-29T10:59:46;22.40;99.90
2955;DHT22;1487;51.470;6.938;2022-07-29T11:02:42;22.80;99.90
2955;DHT22;1487;51.470;6.938;2022-07-29T11:05:11;23.30;99.90
2955;DHT22;1487;51.470;6.938;2022-07-29T11:07:39;24.10;99.90
2955;DHT22;1487;51.470;6.938;2022-07-29T11:10:24;25.00;99.90
2955;DHT22;1487;51.470;6.938;2022-07-29T11:12:50;26.00;99.90
2955;DHT22;1487;51.470;6.938;2022-07-29T11:15:19;26.80;99.90
2955;DHT22;1487;51.470;6.938;2022-07-29T11:18:06;27.30;99.90
2955;DHT22;1487;51.470;6.938;2022-07-29T11:20:38;27.00;99.90
2955;DHT22;1487;51.470;6.938;2022-07-29T11:23:23;27.00;99.90
2955;DHT22;1487;51.470;6.938;2022-07-29T11:26:15;27.10;99.90
2955;DHT22;1487;51.470;6.938;2022-07-29T11:28:54;27.30;99.90
2955;DHT22;1487;51.470;6.938;2022-07-29T11:31:35;28.30;99.90
2955;DHT22;1487;51.470;6.938;2022-07-29T11:34:19;29.10;93.90
2955;DHT22;1487;51.470;6.938;2022-07-29T11:37:20;30.10;90.20
2955;DHT22;1487;51.470;6.938;2022-07-29T11:42:49;31.10;76.10
2955;DHT22;1487;51.470;6.938;2022-07-29T11:45:22;31.00;80.60
2955;DHT22;1487;51.470;6.938;2022-07-29T11:47:53;30.20;77.80
2955;DHT22;1487;51.470;6.938;2022-07-29T11:50:34;30.00;81.00
2955;DHT22;1487;51.470;6.938;2022-07-29T11:53:05;30.00;84.00
2955;DHT22;1487;51.470;6.938;2022-07-29T11:55:38;29.90;81.20
2955;DHT22;1487;51.470;6.938;2022-07-29T11:58:06;29.80;78.40
2955;DHT22;1487;51.470;6.938;2022-07-29T12:00:34;29.60;84.30
2955;DHT22;1487;51.470;6.938;2022-07-29T12:03:03;29.30;80.90
2955;DHT22;1487;51.470;6.938;2022-07-29T12:05:32;29.00;81.00
2955;DHT22;1487;51.470;6.938;2022-07-29T12:08:05;28.60;81.50
2955;DHT22;1487;51.470;6.938;2022-07-29T12:10:32;28.40;86.70
2955;DHT22;1487;51.470;6.938;2022-07-29T12:12:59;28.00;82.80
2955;DHT22;1487;51.470;6.938;2022-07-29T12:15:28;27.70;81.20
2955;DHT22;1487;51.470;6.938;2022-07-29T12:17:55;27.60;88.80
2955;DHT22;1487;51.470;6.938;2022-07-29T12:20:23;27.50;85.10
2955;DHT22;1487;51.470;6.938;2022-07-29T12:22:50;27.30;87.50
2955;DHT22;1487;51.470;6.938;2022-07-29T12:25:19;27.10;87.00
2955;DHT22;1487;51.470;6.938;2022-07-29T12:27:47;26.90;88.40
2955;DHT22;1487;51.470;6.938;2022-07-29T12:30:15;26.70;90.10
2955;DHT22;1487;51.470;6.938;2022-07-29T12:32:46;26.60;90.50
2955;DHT22;1487;51.470;6.938;2022-07-29T12:35:15;26.70;90.80
2955;DHT22;1487;51.470;6.938;2022-07-29T12:37:44;26.90;92.90
2955;DHT22;1487;51.470;6.938;2022-07-29T12:40:14;27.40;90.80
2955;DHT22;1487;51.470;6.938;2022-07-29T12:43:05;27.50;87.30
2955;DHT22;1487;51.470;6.938;2022-07-29T12:45:33;27.30;88.20
2955;DHT22;1487;51.470;6.938;2022-07-29T12:48:01;27.10;85.70
2955;DHT22;1487;51.470;6.938;2022-07-29T12:50:28;26.90;86.50
2955;DHT22;1487;51.470;6.938;2022-07-29T12:53:09;26.90;91.40
2955;DHT22;1487;51.470;6.938;2022-07-29T12:55:44;26.60;89.50
2955;DHT22;1487;51.470;6.938;2022-07-29T12:58:25;26.60;91.10
2955;DHT22;1487;51.470;6.938;2022-07-29T13:01:01;26.50;90.80
2955;DHT22;1487;51.470;6.938;2022-07-29T13:03:42;26.80;91.80
2955;DHT22;1487;51.470;6.938;2022-07-29T13:06:30;27.00;90.80
2955;DHT22;1487;51.470;6.938;2022-07-29T13:08:59;27.10;90.80
2955;DHT22;1487;51.470;6.938;2022-07-29T13:11:30;27.10;91.20
2955;DHT22;1487;51.470;6.938;2022-07-29T13:13:57;27.00;91.50
2955;DHT22;1487;51.470;6.938;2022-07-29T13:16:24;27.30;92.60
2955;DHT22;1487;51.470;6.938;2022-07-29T13:19:13;28.10;91.20
2955;DHT22;1487;51.470;6.938;2022-07-29T13:21:40;29.60;89.00
2955;DHT22;1487;51.470;6.938;2022-07-29T13:24:08;30.50;83.10
2955;DHT22;1487;51.470;6.938;2022-07-29T13:26:36;31.60;80.10
2955;DHT22;1487;51.470;6.938;2022-07-29T13:29:06;32.50;74.20
2955;DHT22;1487;51.470;6.938;2022-07-29T13:31:32;32.70;67.70
2955;DHT22;1487;51.470;6.938;2022-07-29T13:33:59;32.80;65.80
2955;DHT22;1487;51.470;6.938;2022-07-29T13:36:27;32.70;68.50
2955;DHT22;1487;51.470;6.938;2022-07-29T13:38:54;32.90;65.90
2955;DHT22;1487;51.470;6.938;2022-07-29T13:41:21;33.20;64.30
2955;DHT22;1487;51.470;6.938;2022-07-29T13:43:48;33.50;62.80
2955;DHT22;1487;51.470;6.938;2022-07-29T13:46:15;33.30;63.30
2955;DHT22;1487;51.470;6.938;2022-07-29T13:48:42;33.90;64.00
2955;DHT22;1487;51.470;6.938;2022-07-29T13:51:08;34.80;61.20
2955;DHT22;1487;51.470;6.938;2022-07-29T13:53:37;35.00;57.70
2955;DHT22;1487;51.470;6.938;2022-07-29T13:56:04;34.50;58.00
2955;DHT22;1487;51.470;6.938;2022-07-29T13:58:32;34.10;60.80
2955;DHT22;1487;51.470;6.938;2022-07-29T14:00:59;34.00;60.40
2955;DHT22;1487;51.470;6.938;2022-07-29T14:03:26;34.30;59.20
2955;DHT22;1487;51.470;6.938;2022-07-29T14:05:53;34.50;58.90
2955;DHT22;1487;51.470;6.938;2022-07-29T14:08:21;34.80;59.10
2955;DHT22;1487;51.470;6.938;2022-07-29T14:10:49;35.10;60.90
2955;DHT22;1487;51.470;6.938;2022-07-29T14:13:16;35.50;60.20
2955;DHT22;1487;51.470;6.938;2022-07-29T14:15:43;35.70;58.70
2955;DHT22;1487;51.470;6.938;2022-07-29T14:18:10;35.60;58.00
2955;DHT22;1487;51.470;6.938;2022-07-29T14:20:37;35.50;57.60
2955;DHT22;1487;51.470;6.938;2022-07-29T14:23:04;35.50;57.50
2955;DHT22;1487;51.470;6.938;2022-07-29T14:25:31;35.60;57.20
2955;DHT22;1487;51.470;6.938;2022-07-29T14:27:59;35.30;56.90
2955;DHT22;1487;51.470;6.938;2022-07-29T14:30:26;35.30;57.80
2955;DHT22;1487;51.470;6.938;2022-07-29T14:32:53;35.30;57.30
2955;DHT22;1487;51.470;6.938;2022-07-29T14:35:19;35.40;56.30
2955;DHT22;1487;51.470;6.938;2022-07-29T14:37:46;35.60;56.30
2955;DHT22;1487;51.470;6.938;2022-07-29T14:40:13;35.50;55.20
2955;DHT22;1487;51.470;6.938;2022-07-29T14:42:40;35.30;56.40
2955;DHT22;1487;51.470;6.938;2022-07-29T14:45:09;35.10;55.50
2955;DHT22;1487;51.470;6.938;2022-07-29T14:47:36;34.50;56.40
2955;DHT22;1487;51.470;6.938;2022-07-29T14:50:04;34.30;56.40
2955;DHT22;1487;51.470;6.938;2022-07-29T14:52:32;33.80;56.60
2955;DHT22;1487;51.470;6.938;2022-07-29T14:54:59;33.60;57.00
2955;DHT22;1487;51.470;6.938;2022-07-29T14:57:26;33.50;58.30
2955;DHT22;1487;51.470;6.938;2022-07-29T14:59:53;33.40;57.90
2955;DHT22;1487;51.470;6.938;2022-07-29T15:02:21;33.30;57.60
2955;DHT22;1487;51.470;6.938;2022-07-29T15:04:48;33.30;57.70
2955;DHT22;1487;51.470;6.938;2022-07-29T15:07:15;32.90;58.10
2955;DHT22;1487;51.470;6.938;2022-07-29T15:09:42;33.10;58.50
2955;DHT22;1487;51.470;6.938;2022-07-29T15:12:10;33.40;58.20
2955;DHT22;1487;51.470;6.938;2022-07-29T15:14:37;33.40;58.40
2955;DHT22;1487;51.470;6.938;2022-07-29T15:17:04;33.10;59.00
2955;DHT22;1487;51.470;6.938;2022-07-29T15:19:32;33.30;57.90
2955;DHT22;1487;51.470;6.938;2022-07-29T15:21:59;33.40;57.30
2955;DHT22;1487;51.470;6.938;2022-07-29T15:24:26;33.30;57.40
2955;DHT22;1487;51.470;6.938;2022-07-29T15:26:53;33.20;59.20
2955;DHT22;1487;51.470;6.938;2022-07-29T15:29:20;33.60;59.00
2955;DHT22;1487;51.470;6.938;2022-07-29T15:31:47;33.40;57.60
2955;DHT22;1487;51.470;6.938;2022-07-29T15:34:13;33.00;56.60
2955;DHT22;1487;51.470;6.938;2022-07-29T15:36:42;32.80;58.30
2955;DHT22;1487;51.470;6.938;2022-07-29T15:39:09;32.10;58.40
2955;DHT22;1487;51.470;6.938;2022-07-29T15:41:36;31.40;59.50
2955;DHT22;1487;51.470;6.938;2022-07-29T15:44:03;30.60;60.90
2955;DHT22;1487;51.470;6.938;2022-07-29T15:46:30;30.00;61.90
2955;DHT22;1487;51.470;6.938;2022-07-29T15:49:14;29.40;63.80
2955;DHT22;1487;51.470;6.938;2022-07-29T15:51:42;28.70;66.60
2955;DHT22;1487;51.470;6.938;2022-07-29T15:54:09;28.40;68.40
2955;DHT22;1487;51.470;6.938;2022-07-29T15:56:36;27.90;68.30
2955;DHT22;1487;51.470;6.938;2022-07-29T15:59:03;27.60;70.10
2955;DHT22;1487;51.470;6.938;2022-07-29T16:01:30;27.40;71.90
2955;DHT22;1487;51.470;6.938;2022-07-29T16:03:57;27.30;73.30
2955;DHT22;1487;51.470;6.938;2022-07-29T16:06:24;27.10;73.60
2955;DHT22;1487;51.470;6.938;2022-07-29T16:08:52;27.00;72.70
2955;DHT22;1487;51.470;6.938;2022-07-29T16:11:20;26.60;74.00
2955;DHT22;1487;51.470;6.938;2022-07-29T16:13:47;26.40;75.10
2955;DHT22;1487;51.470;6.938;2022-07-29T16:16:14;26.20;76.30
2955;DHT22;1487;51.470;6.938;2022-07-29T16:18:42;26.00;78.30